createdAt,value
2023-02-09T00:03:04.432Z,18.52
2023-02-09T00:08:06.491Z,17.25
2023-02-09T00:13:24.102Z,17.88
2023-02-09T00:18:26.470Z,17.63
2023-02-09T00:23:30.858Z,18.15
2023-02-09T00:28:33.215Z,20.30
2023-02-09T00:33:36.103Z,15.75
2023-02-09T00:38:38.700Z,19.30
2023-02-09T00:43:41.310Z,17.80
2023-02-09T00:48:43.355Z,18.73
2023-02-09T00:53:46.240Z,20.70
2023-02-09T00:58:48.522Z,17.92
2023-02-09T01:03:51.888Z,20.40
2023-02-09T01:08:55.661Z,20.55
2023-02-09T01:13:59.527Z,20.60
2023-02-09T01:19:03.939Z,18.20
2023-02-09T01:24:06.464Z,16.45
2023-02-09T01:29:11.348Z,20.70
2023-02-09T01:34:15.721Z,20.02
2023-02-09T01:39:17.805Z,16.52
2023-02-09T01:44:19.765Z,19.98
2023-02-09T01:49:27.534Z,20.75
2023-02-09T01:54:37.824Z,18.45
2023-02-09T01:59:43.401Z,16.98
2023-02-09T02:04:45.717Z,24.70
2023-02-09T02:09:47.998Z,21.55
2023-02-09T02:14:50.877Z,19.75
2023-02-09T02:20:08.426Z,18.48
2023-02-09T02:25:30.184Z,18.42
2023-02-09T02:30:57.984Z,16.63
2023-02-09T02:36:25.893Z,16.92
2023-02-09T02:41:52.770Z,18.63
2023-02-09T02:47:01.084Z,19.40
2023-02-09T02:52:07.987Z,21.38
2023-02-09T02:57:19.406Z,17.02
2023-02-09T03:02:26.133Z,18.80
2023-02-09T03:07:28.189Z,19.45
2023-02-09T03:12:41.930Z,18.63
2023-02-09T03:18:07.496Z,20.08
2023-02-09T03:23:18.266Z,19.77
2023-02-09T03:28:26.347Z,20.45
2023-02-09T03:33:30.893Z,19.42
2023-02-09T03:38:32.990Z,17.80
2023-02-09T03:43:53.706Z,21.33
2023-02-09T03:53:57.920Z,15.95
2023-02-09T03:58:59.919Z,20.02
2023-02-09T04:04:03.098Z,18.58
2023-02-09T04:09:06.465Z,19.52
2023-02-09T04:14:09.623Z,19.35
2023-02-09T04:19:12.302Z,18.02
2023-02-09T04:24:14.369Z,16.75
2023-02-09T04:29:16.472Z,15.65
2023-02-09T04:34:21.051Z,16.17
2023-02-09T04:39:23.201Z,14.50
2023-02-09T04:44:25.250Z,17.27
2023-02-09T04:49:27.346Z,14.88
2023-02-09T04:54:29.417Z,15.13
2023-02-09T04:59:34.832Z,15.80
2023-02-09T05:04:37.097Z,16.27
2023-02-09T05:09:39.142Z,14.63
2023-02-09T05:14:41.248Z,14.77
2023-02-09T05:19:43.290Z,18.10
2023-02-09T05:24:45.416Z,15.48
2023-02-09T05:29:47.490Z,16.20
2023-02-09T05:34:49.540Z,16.38
2023-02-09T05:39:51.601Z,17.35
2023-02-09T05:44:53.828Z,17.52
2023-02-09T05:49:56.224Z,15.95
2023-02-09T05:54:58.440Z,16.58
2023-02-09T06:00:00.677Z,18.08
2023-02-09T06:05:02.748Z,20.70
2023-02-09T06:10:04.919Z,15.43
2023-02-09T06:15:07.155Z,16.25
2023-02-09T06:20:09.741Z,17.95
2023-02-09T06:25:12.607Z,16.15
2023-02-09T06:30:14.730Z,16.60
2023-02-09T06:35:16.794Z,18.27
2023-02-09T06:40:19.046Z,19.30
2023-02-09T06:45:21.051Z,15.75
2023-02-09T06:50:23.133Z,19.65
2023-02-09T06:55:25.686Z,19.77
2023-02-09T07:00:28.006Z,17.00
2023-02-09T07:05:31.445Z,18.38
2023-02-09T07:10:33.575Z,18.20
2023-02-09T07:15:35.722Z,19.98
2023-02-09T07:20:37.781Z,19.45
2023-02-09T07:25:39.807Z,17.98
2023-02-09T07:30:42.063Z,19.67
2023-02-09T07:35:44.747Z,21.88
2023-02-09T07:40:47.143Z,20.33
2023-02-09T07:45:49.340Z,23.95
2023-02-09T07:50:51.442Z,18.75
2023-02-09T07:55:53.452Z,20.52
2023-02-09T08:00:55.793Z,19.17
2023-02-09T08:06:04.264Z,17.90
2023-02-09T08:11:06.855Z,18.35
2023-02-09T08:16:12.959Z,18.35
2023-02-09T08:21:16.258Z,21.75
2023-02-09T08:26:18.709Z,21.70
2023-02-09T08:31:22.372Z,22.02
2023-02-09T08:36:24.696Z,19.97
2023-02-09T08:41:27.216Z,22.08
2023-02-09T08:46:29.412Z,21.10
2023-02-09T08:51:31.577Z,21.10
2023-02-09T08:56:33.753Z,21.85
2023-02-09T09:01:35.826Z,21.27
2023-02-09T09:06:37.913Z,25.90
2023-02-09T09:11:40.554Z,19.92
2023-02-09T09:16:42.650Z,18.95
2023-02-09T09:21:44.715Z,26.35
2023-02-09T09:26:47.045Z,23.02
2023-02-09T09:31:49.369Z,24.00
2023-02-09T09:36:51.749Z,22.83
2023-02-09T09:41:59.315Z,19.88
2023-02-09T09:47:08.408Z,20.85
2023-02-09T09:52:19.940Z,23.65
2023-02-09T09:57:26.065Z,21.80
2023-02-09T10:02:31.363Z,22.55
2023-02-09T10:07:34.506Z,23.98
2023-02-09T10:12:43.284Z,20.92
2023-02-09T10:17:45.361Z,20.75
2023-02-09T10:22:51.794Z,22.50
2023-02-09T10:27:53.814Z,22.35
2023-02-09T10:32:59.847Z,23.98
2023-02-09T10:38:02.637Z,24.38
2023-02-09T10:43:25.827Z,20.98
2023-02-09T10:48:38.514Z,21.90
2023-02-09T10:53:58.284Z,25.80
2023-02-09T10:59:03.887Z,25.55
2023-02-09T11:04:18.011Z,23.25
2023-02-09T11:09:25.029Z,24.23
2023-02-09T11:14:27.693Z,31.40
2023-02-09T11:19:47.858Z,28.38
2023-02-09T11:25:17.089Z,24.25
2023-02-09T11:30:45.884Z,29.15
2023-02-09T11:36:36.006Z,27.63
2023-02-09T11:42:04.773Z,28.13
2023-02-09T11:47:11.963Z,33.55
2023-02-09T11:52:31.476Z,28.50
2023-02-09T11:57:45.037Z,28.10
2023-02-09T12:03:12.615Z,30.70
2023-02-09T12:08:39.458Z,28.27
2023-02-09T12:13:58.182Z,28.35
2023-02-09T12:19:01.876Z,29.85
2023-02-09T12:24:27.916Z,26.80
2023-02-09T12:29:29.890Z,28.13
2023-02-09T12:34:34.916Z,28.65
2023-02-09T12:39:37.234Z,34.03
2023-02-09T12:44:54.931Z,28.52
2023-02-09T12:50:04.662Z,33.45
2023-02-09T12:55:19.873Z,29.20
2023-02-09T13:00:30.715Z,28.38
2023-02-09T13:05:39.432Z,29.92
2023-02-09T13:10:54.780Z,28.45
2023-02-09T13:16:03.309Z,28.83
2023-02-09T13:21:13.374Z,29.52
2023-02-09T13:26:17.871Z,28.87
2023-02-09T13:31:30.708Z,29.33
2023-02-09T13:36:45.681Z,29.65
2023-02-09T13:41:49.899Z,32.90
2023-02-09T13:46:54.754Z,33.78
2023-02-09T13:52:13.773Z,35.30
2023-02-09T13:57:34.741Z,32.17
2023-02-09T14:02:37.867Z,36.40
2023-02-09T14:07:39.996Z,33.40
2023-02-09T14:12:59.866Z,36.88
2023-02-09T14:18:01.900Z,34.95
2023-02-09T14:23:14.646Z,38.00
2023-02-09T14:28:16.823Z,36.15
2023-02-09T14:33:28.707Z,34.70
2023-02-09T14:38:42.600Z,37.85
2023-02-09T14:43:44.876Z,38.40
2023-02-09T14:48:46.895Z,37.95
2023-02-09T14:53:49.787Z,37.20
2023-02-09T14:58:51.905Z,37.67
2023-02-09T15:03:53.896Z,36.42
2023-02-09T15:08:55.936Z,36.60
2023-02-09T15:14:02.143Z,35.53
2023-02-09T15:19:05.328Z,34.95
2023-02-09T15:24:07.455Z,37.55
2023-02-09T15:29:14.773Z,38.47
2023-02-09T15:34:16.844Z,34.75
2023-02-09T15:39:23.238Z,38.47
2023-02-09T15:44:43.694Z,35.00
2023-02-09T15:49:46.002Z,42.77
2023-02-09T15:54:50.144Z,35.47
2023-02-09T15:59:52.404Z,36.50
2023-02-09T16:04:55.229Z,36.17
2023-02-09T16:09:57.284Z,37.90
2023-02-09T16:14:59.511Z,43.08
2023-02-09T16:20:01.791Z,39.33
2023-02-09T16:25:04.418Z,39.22
2023-02-09T16:30:19.267Z,42.38
2023-02-09T16:35:24.352Z,38.70
2023-02-09T16:40:31.777Z,42.88
2023-02-09T16:45:36.333Z,43.25
2023-02-09T16:50:41.930Z,45.17
2023-02-09T16:55:48.069Z,43.13
2023-02-09T17:00:51.474Z,40.90
2023-02-09T17:05:57.249Z,40.50
2023-02-09T17:11:01.316Z,45.22
2023-02-09T17:16:05.618Z,47.10
2023-02-09T17:21:14.340Z,56.63
2023-02-09T17:26:16.851Z,43.40
2023-02-09T17:31:38.315Z,58.20
2023-02-09T17:36:46.037Z,57.35
2023-02-09T17:41:49.838Z,47.08
2023-02-09T17:46:53.089Z,52.42
2023-02-09T17:51:55.337Z,48.97
2023-02-09T17:56:57.325Z,55.22
2023-02-09T18:01:59.434Z,60.63
2023-02-09T18:07:02.347Z,63.35
2023-02-09T18:12:10.610Z,57.03
2023-02-09T18:17:13.016Z,51.83
2023-02-09T18:22:19.820Z,51.33
2023-02-09T18:27:23.052Z,49.70
2023-02-09T18:32:25.612Z,56.85
2023-02-09T18:37:29.169Z,47.88
2023-02-09T18:42:31.193Z,51.67
2023-02-09T18:47:33.182Z,48.80
2023-02-09T18:52:35.302Z,50.88
2023-02-09T18:57:37.301Z,53.05
2023-02-09T19:02:39.472Z,51.28
2023-02-09T19:07:42.456Z,52.70
2023-02-09T19:12:45.376Z,51.97
2023-02-09T19:17:47.683Z,52.88
2023-02-09T19:22:53.142Z,62.60
2023-02-09T19:27:55.589Z,54.40
2023-02-09T19:32:58.584Z,56.97
2023-02-09T19:38:00.635Z,56.92
2023-02-09T19:43:04.193Z,54.55
2023-02-09T19:48:07.954Z,64.72
2023-02-09T19:53:09.948Z,72.70
2023-02-09T19:58:11.971Z,59.95
2023-02-09T20:03:15.052Z,56.05
2023-02-09T20:08:19.252Z,68.20
2023-02-09T20:18:25.296Z,67.40
2023-02-09T20:23:27.873Z,56.08
2023-02-09T20:28:30.184Z,57.33
2023-02-09T20:33:34.013Z,64.82
2023-02-09T20:38:37.052Z,61.10
2023-02-09T20:43:57.551Z,61.53
2023-02-09T20:48:59.763Z,57.35
2023-02-09T20:54:02.065Z,72.57
2023-02-09T20:59:06.124Z,72.47
2023-02-09T21:04:08.931Z,80.65
2023-02-09T21:09:14.116Z,72.80
2023-02-09T21:14:27.174Z,62.50
2023-02-09T21:19:38.305Z,59.20
2023-02-09T21:24:40.358Z,67.50
2023-02-09T21:29:42.462Z,62.13
2023-02-09T21:34:44.614Z,64.97
2023-02-09T21:39:46.726Z,67.15
2023-02-09T21:44:49.050Z,71.43
2023-02-09T21:49:51.117Z,66.07
2023-02-09T21:54:53.845Z,63.63
2023-02-09T21:59:56.517Z,60.83
2023-02-09T22:04:59.033Z,65.45
2023-02-09T22:10:02.212Z,61.20
2023-02-09T22:15:04.503Z,64.82
2023-02-09T22:20:07.685Z,73.97
2023-02-09T22:25:09.766Z,67.15
2023-02-09T22:30:12.033Z,66.00
2023-02-09T22:35:14.216Z,60.78
2023-02-09T22:40:16.392Z,67.63
2023-02-09T22:45:18.596Z,67.18
2023-02-09T22:50:20.660Z,65.57
2023-02-09T22:55:22.659Z,70.80
2023-02-09T23:00:24.765Z,70.40
2023-02-09T23:05:26.826Z,69.82
2023-02-09T23:10:28.864Z,65.13
2023-02-09T23:15:30.948Z,75.10
2023-02-09T23:20:33.009Z,76.55
2023-02-09T23:25:35.066Z,81.93
2023-02-09T23:30:37.255Z,70.85
2023-02-09T23:35:40.341Z,62.47
2023-02-09T23:40:42.367Z,68.15
2023-02-09T23:45:44.420Z,60.83
2023-02-09T23:50:46.441Z,61.38
2023-02-09T23:55:52.462Z,63.03
